createdAt,value
2022-09-05T00:04:24.814Z,8.50
2022-09-05T00:07:05.240Z,7.50
2022-09-05T00:10:00.403Z,9.75
2022-09-05T00:12:32.096Z,9.95
2022-09-05T00:15:20.304Z,12.02
2022-09-05T00:21:48.254Z,10.52
2022-09-05T00:24:19.194Z,6.13
2022-09-05T00:24:50.209Z,7.43
2022-09-05T00:27:30.127Z,8.80
2022-09-05T00:31:50.793Z,7.97
2022-09-05T00:33:27.417Z,9.38
2022-09-05T00:36:32.734Z,7.10
2022-09-05T00:39:05.199Z,7.90
2022-09-05T00:41:34.383Z,6.80
2022-09-05T00:44:04.915Z,5.70
2022-09-05T00:46:36.510Z,8.50
2022-09-05T00:49:18.040Z,8.70
2022-09-05T00:51:54.712Z,5.90
2022-09-05T00:54:47.170Z,8.98
2022-09-05T00:57:45.487Z,6.45
2022-09-05T01:00:19.682Z,11.98
2022-09-05T01:03:17.082Z,8.00
2022-09-05T01:06:19.186Z,8.38
2022-09-05T01:09:18.878Z,7.28
2022-09-05T01:12:01.959Z,6.83
2022-09-05T01:14:50.437Z,8.90
2022-09-05T01:17:36.760Z,9.32
2022-09-05T01:20:18.899Z,6.55
2022-09-05T01:23:08.861Z,8.73
2022-09-05T01:26:03.105Z,8.23
2022-09-05T01:29:16.479Z,7.60
2022-09-05T01:31:39.161Z,6.85
2022-09-05T01:34:21.698Z,6.15
2022-09-05T01:37:29.694Z,10.50
2022-09-05T01:40:15.847Z,6.82
2022-09-05T01:43:02.661Z,6.75
2022-09-05T01:45:49.826Z,8.90
2022-09-05T01:48:35.746Z,7.47
2022-09-05T01:51:29.153Z,8.35
2022-09-05T01:54:24.763Z,7.50
2022-09-05T01:57:09.220Z,9.07
2022-09-05T01:59:49.860Z,7.70
2022-09-05T02:05:47.476Z,7.75
2022-09-05T02:08:49.462Z,7.10
2022-09-05T02:11:35.371Z,8.02
2022-09-05T02:14:12.499Z,7.28
2022-09-05T02:16:56.792Z,8.40
2022-09-05T02:19:31.680Z,12.15
2022-09-05T02:22:10.727Z,8.65
2022-09-05T02:24:43.386Z,8.95
2022-09-05T02:28:04.469Z,9.18
2022-09-05T02:30:20.879Z,8.25
2022-09-05T02:32:59.734Z,8.63
2022-09-05T02:35:40.468Z,10.48
2022-09-05T02:45:01.889Z,11.10
2022-09-05T02:45:17.100Z,8.90
2022-09-05T02:46:59.031Z,8.15
2022-09-05T02:51:17.253Z,11.55
2022-09-05T02:57:38.791Z,7.55
2022-09-05T02:57:43.270Z,8.20
2022-09-05T02:59:06.057Z,7.57
2022-09-05T03:02:03.316Z,7.70
2022-09-05T03:05:00.960Z,9.00
2022-09-05T03:07:58.743Z,11.25
2022-09-05T03:11:12.092Z,9.05
2022-09-05T03:14:43.730Z,7.43
2022-09-05T03:17:57.199Z,7.30
2022-09-05T03:21:26.492Z,7.50
2022-09-05T03:24:48.191Z,8.00
2022-09-05T03:28:26.975Z,11.38
2022-09-05T03:34:39.617Z,7.32
2022-09-05T03:37:49.565Z,6.93
2022-09-05T03:40:44.737Z,8.63
2022-09-05T03:43:47.798Z,8.88
2022-09-05T03:46:32.028Z,10.32
2022-09-05T03:50:40.181Z,7.80
2022-09-05T03:57:14.767Z,8.52
2022-09-05T03:57:23.502Z,8.13
2022-09-05T03:58:57.098Z,10.95
2022-09-05T04:04:00.291Z,11.38
2022-09-05T04:08:10.873Z,9.43
2022-09-05T04:08:13.866Z,10.07
2022-09-05T04:10:28.575Z,11.40
2022-09-05T04:13:04.088Z,10.77
2022-09-05T04:15:40.178Z,11.85
2022-09-05T04:18:25.888Z,14.15
2022-09-05T04:21:07.685Z,12.55
2022-09-05T04:23:49.490Z,9.70
2022-09-05T04:26:46.554Z,14.30
2022-09-05T04:29:25.635Z,12.95
2022-09-05T04:32:12.410Z,11.00
2022-09-05T04:35:05.579Z,11.38
2022-09-05T04:37:48.911Z,10.30
2022-09-05T04:40:38.538Z,11.30
2022-09-05T04:43:11.775Z,12.85
2022-09-05T04:45:47.184Z,11.52
2022-09-05T04:48:21.566Z,11.18
2022-09-05T04:51:22.960Z,13.00
2022-09-05T04:54:16.039Z,10.88
2022-09-05T04:56:47.659Z,12.47
2022-09-05T05:01:34.578Z,9.45
2022-09-05T05:06:01.123Z,8.88
2022-09-05T05:06:17.341Z,9.20
2022-09-05T05:08:38.155Z,11.00
2022-09-05T05:17:56.050Z,11.13
2022-09-05T05:18:01.320Z,11.27
2022-09-05T05:18:07.220Z,12.70
2022-09-05T05:20:40.256Z,11.35
2022-09-05T05:23:07.624Z,13.68
2022-09-05T05:25:49.026Z,8.80
2022-09-05T05:28:26.956Z,11.60
2022-09-05T05:31:01.171Z,9.65
2022-09-05T05:33:36.365Z,14.77
2022-09-05T05:36:10.645Z,12.15
2022-09-05T05:38:47.315Z,15.93
2022-09-05T05:41:24.249Z,13.80
2022-09-05T05:43:53.170Z,11.65
2022-09-05T05:46:38.963Z,11.32
2022-09-05T05:49:34.326Z,9.43
2022-09-05T05:52:40.747Z,12.32
2022-09-05T05:55:51.798Z,12.68
2022-09-05T05:58:44.566Z,16.15
2022-09-05T06:02:08.258Z,17.23
2022-09-05T06:05:18.894Z,12.57
2022-09-05T06:10:00.440Z,11.60
2022-09-05T06:14:55.255Z,13.18
2022-09-05T06:15:13.197Z,12.43
2022-09-05T06:18:21.198Z,8.77
2022-09-05T06:22:10.260Z,12.70
2022-09-05T06:25:21.104Z,15.85
2022-09-05T06:28:19.087Z,11.70
2022-09-05T06:31:19.754Z,11.65
2022-09-05T06:34:27.220Z,17.98
2022-09-05T06:37:07.223Z,14.40
2022-09-05T06:40:04.627Z,9.70
2022-09-05T06:42:46.169Z,11.38
2022-09-05T06:45:32.653Z,9.15
2022-09-05T06:48:13.683Z,12.32
2022-09-05T06:51:16.710Z,11.23
2022-09-05T06:54:03.795Z,9.55
2022-09-05T06:57:19.115Z,11.80
2022-09-05T07:00:21.672Z,10.10
2022-09-05T07:03:18.842Z,10.23
2022-09-05T07:05:56.699Z,9.13
2022-09-05T07:08:34.992Z,9.35
2022-09-05T07:11:15.872Z,12.20
2022-09-05T07:14:01.906Z,7.28
2022-09-05T07:16:43.561Z,9.45
2022-09-05T07:19:26.946Z,8.43
2022-09-05T07:22:48.486Z,15.10
2022-09-05T07:25:21.595Z,8.18
2022-09-05T07:28:28.235Z,10.35
2022-09-05T07:30:52.104Z,9.93
2022-09-05T07:33:22.551Z,7.32
2022-09-05T07:35:52.867Z,10.82
2022-09-05T07:38:26.773Z,7.40
2022-09-05T07:41:24.415Z,8.15
2022-09-05T07:43:59.997Z,7.57
2022-09-05T07:46:33.859Z,9.93
2022-09-05T07:49:07.354Z,10.93
2022-09-05T07:56:46.876Z,8.90
2022-09-05T07:56:55.222Z,9.73
2022-09-05T07:57:31.689Z,8.43
2022-09-05T08:00:23.116Z,6.88
2022-09-05T08:02:59.455Z,9.70
2022-09-05T08:05:37.327Z,7.10
2022-09-05T08:08:11.558Z,11.45
2022-09-05T08:11:22.275Z,8.25
2022-09-05T08:13:52.568Z,9.65
2022-09-05T08:16:25.422Z,6.72
2022-09-05T08:19:07.883Z,7.65
2022-09-05T08:21:42.746Z,5.65
2022-09-05T08:24:20.443Z,6.75
2022-09-05T08:26:52.369Z,6.47
2022-09-05T08:29:31.942Z,11.55
2022-09-05T08:32:08.491Z,9.95
2022-09-05T08:34:45.613Z,12.57
2022-09-05T08:37:20.971Z,7.43
2022-09-05T08:40:07.280Z,8.35
2022-09-05T08:45:22.775Z,13.70
2022-09-05T08:46:44.900Z,6.65
2022-09-05T08:48:56.207Z,7.53
2022-09-05T08:51:41.910Z,8.98
2022-09-05T08:54:33.696Z,10.40
2022-09-05T08:57:13.871Z,9.40
2022-09-05T09:00:19.057Z,8.00
2022-09-05T09:02:55.689Z,9.63
2022-09-05T09:06:16.431Z,8.18
2022-09-05T09:09:14.390Z,6.00
2022-09-05T09:11:51.845Z,4.72
2022-09-05T09:14:50.178Z,8.02
2022-09-05T09:17:35.311Z,9.70
2022-09-05T09:20:26.421Z,9.07
2022-09-05T09:23:03.099Z,7.47
2022-09-05T09:25:42.522Z,8.20
2022-09-05T09:28:52.300Z,10.68
2022-09-05T09:31:38.908Z,6.47
2022-09-05T09:34:49.309Z,7.25
2022-09-05T09:38:02.591Z,6.40
2022-09-05T09:41:33.570Z,6.55
2022-09-05T09:45:22.534Z,6.00
2022-09-05T09:48:37.418Z,6.60
2022-09-05T09:51:40.642Z,4.88
2022-09-05T09:54:57.049Z,6.70
2022-09-05T09:58:12.793Z,6.05
2022-09-05T10:00:51.352Z,7.32
2022-09-05T10:08:22.956Z,7.45
2022-09-05T10:10:52.197Z,9.45
2022-09-05T10:14:57.091Z,5.65
2022-09-05T10:17:43.450Z,5.72
2022-09-05T10:21:16.123Z,7.72
2022-09-05T10:24:33.074Z,5.57
2022-09-05T10:27:26.721Z,6.40
2022-09-05T10:30:09.133Z,5.88
2022-09-05T10:35:08.451Z,4.50
2022-09-05T10:35:50.573Z,6.63
2022-09-05T10:38:26.405Z,4.88
2022-09-05T10:41:20.767Z,5.93
2022-09-05T10:43:51.374Z,18.10
2022-09-05T10:46:50.291Z,5.65
2022-09-05T10:49:27.056Z,9.63
2022-09-05T10:52:04.109Z,7.63
2022-09-05T10:55:14.714Z,15.35
2022-09-05T10:57:59.646Z,9.80
2022-09-05T11:02:28.223Z,5.88
2022-09-05T11:03:55.181Z,10.02
2022-09-05T11:06:45.179Z,6.22
2022-09-05T11:09:37.165Z,7.97
2022-09-05T11:12:22.339Z,5.80
2022-09-05T11:14:53.465Z,4.45
2022-09-05T11:17:32.049Z,8.35
2022-09-05T11:20:35.061Z,10.07
2022-09-05T11:23:10.936Z,3.72
2022-09-05T11:25:41.200Z,8.13
2022-09-05T11:28:17.722Z,5.75
2022-09-05T11:30:53.335Z,3.67
2022-09-05T11:35:17.094Z,4.18
2022-09-05T11:40:06.568Z,5.30
2022-09-05T11:40:51.128Z,10.48
2022-09-05T11:44:02.478Z,6.60
2022-09-05T11:46:52.082Z,5.15
2022-09-05T11:50:10.386Z,6.15
2022-09-05T11:53:18.674Z,6.40
2022-09-05T11:56:32.231Z,8.02
2022-09-05T11:59:46.954Z,5.40
2022-09-05T12:02:34.716Z,7.70
2022-09-05T12:08:36.956Z,8.27
2022-09-05T12:11:21.520Z,4.82
2022-09-05T12:13:57.625Z,6.72
2022-09-05T12:16:56.851Z,5.47
2022-09-05T12:19:35.815Z,5.63
2022-09-05T12:22:29.037Z,6.25
2022-09-05T12:27:35.398Z,4.18
2022-09-05T12:32:19.531Z,8.85
2022-09-05T12:36:12.902Z,6.05
2022-09-05T12:40:56.294Z,5.32
2022-09-05T12:41:33.093Z,3.97
2022-09-05T12:42:09.753Z,8.55
2022-09-05T12:42:10.808Z,4.68
2022-09-05T12:43:42.484Z,8.38
2022-09-05T12:45:59.277Z,4.50
2022-09-05T12:48:39.430Z,4.53
2022-09-05T12:51:11.955Z,3.75
2022-09-05T12:54:04.260Z,6.50
2022-09-05T13:02:20.065Z,4.95
2022-09-05T13:03:02.512Z,6.65
2022-09-05T13:03:13.814Z,3.13
2022-09-05T13:05:47.390Z,4.55
2022-09-05T13:08:21.116Z,3.88
2022-09-05T13:14:49.645Z,6.53
2022-09-05T13:14:53.083Z,3.50
2022-09-05T13:16:46.181Z,5.20
2022-09-05T13:19:37.405Z,9.82
2022-09-05T13:22:08.595Z,4.70
2022-09-05T13:24:41.477Z,7.88
2022-09-05T13:27:15.535Z,10.77
2022-09-05T13:32:36.108Z,4.38
2022-09-05T13:38:03.378Z,5.97
2022-09-05T13:38:08.166Z,5.93
2022-09-05T13:38:58.959Z,4.90
2022-09-05T13:41:31.491Z,6.47
2022-09-05T13:44:25.211Z,5.57
2022-09-05T13:46:58.891Z,5.82
2022-09-05T13:49:35.169Z,5.53
2022-09-05T13:52:28.009Z,7.22
2022-09-05T13:55:17.933Z,4.97
2022-09-05T13:57:51.030Z,7.35
2022-09-05T14:01:12.730Z,8.93
2022-09-05T14:08:33.566Z,5.90
2022-09-05T14:15:08.083Z,7.35
2022-09-05T14:20:37.314Z,6.47
2022-09-05T14:23:13.419Z,6.93
2022-09-05T14:25:44.866Z,5.07
2022-09-05T14:28:22.173Z,7.03
2022-09-05T14:35:20.784Z,11.45
2022-09-05T14:37:40.950Z,6.97
2022-09-05T14:37:49.771Z,6.65
2022-09-05T14:41:26.886Z,4.93
2022-09-05T14:44:22.711Z,5.68
2022-09-05T14:47:35.411Z,5.32
2022-09-05T14:50:29.304Z,6.15
2022-09-05T14:57:02.091Z,7.40
2022-09-05T15:02:51.312Z,5.80
2022-09-05T15:02:57.790Z,8.55
2022-09-05T15:04:56.472Z,7.30
2022-09-05T15:07:29.330Z,6.07
2022-09-05T15:12:14.602Z,7.65
2022-09-05T15:13:17.436Z,8.25
2022-09-05T15:16:02.012Z,6.80
2022-09-05T15:18:33.530Z,6.70
2022-09-05T15:21:30.669Z,6.68
2022-09-05T15:24:21.352Z,5.70
2022-09-05T15:26:53.802Z,5.28
2022-09-05T15:29:27.639Z,7.22
2022-09-05T15:32:14.819Z,10.50
2022-09-05T15:34:43.115Z,10.43
2022-09-05T15:37:25.443Z,7.10
2022-09-05T15:40:23.176Z,4.95
2022-09-05T15:42:55.706Z,9.63
2022-09-05T15:45:29.142Z,11.25
2022-09-05T15:48:12.528Z,9.60
2022-09-05T15:50:50.122Z,8.88
2022-09-05T15:53:26.454Z,8.57
2022-09-05T15:56:00.155Z,5.25
2022-09-05T15:58:35.964Z,8.88
2022-09-05T16:01:45.035Z,9.13
2022-09-05T16:08:26.429Z,7.57
2022-09-05T16:10:48.950Z,9.23
2022-09-05T16:10:49.320Z,7.00
2022-09-05T16:12:53.559Z,8.27
2022-09-05T16:19:06.526Z,6.68
2022-09-05T16:23:27.195Z,6.45
2022-09-05T16:23:35.248Z,10.10
2022-09-05T16:24:06.002Z,7.97
2022-09-05T16:26:41.370Z,7.93
2022-09-05T16:29:26.116Z,8.90
2022-09-05T16:32:16.275Z,11.02
2022-09-05T16:34:55.270Z,11.50
2022-09-05T16:37:31.101Z,8.35
2022-09-05T16:40:08.647Z,10.93
2022-09-05T16:42:47.509Z,8.73
2022-09-05T16:45:31.516Z,8.18
2022-09-05T16:48:16.963Z,11.57
2022-09-05T16:50:53.072Z,10.68
2022-09-05T16:53:33.438Z,12.15
2022-09-05T16:56:07.691Z,9.25
2022-09-05T16:58:41.964Z,9.05
2022-09-05T17:01:28.624Z,8.98
2022-09-05T17:03:59.086Z,7.72
2022-09-05T17:06:45.061Z,8.98
2022-09-05T17:09:24.832Z,12.57
2022-09-05T17:12:01.875Z,13.88
2022-09-05T17:14:36.070Z,8.43
2022-09-05T17:18:18.262Z,9.73
2022-09-05T17:20:14.415Z,8.63
2022-09-05T17:26:21.695Z,10.87
2022-09-05T17:29:28.586Z,9.05
2022-09-05T17:29:31.431Z,10.35
2022-09-05T17:32:04.454Z,8.70
2022-09-05T17:35:17.567Z,10.30
2022-09-05T17:38:40.083Z,12.15
2022-09-05T17:41:36.331Z,8.05
2022-09-05T17:44:18.018Z,8.48
2022-09-05T17:47:06.575Z,8.02
2022-09-05T17:49:45.215Z,8.23
2022-09-05T17:52:22.914Z,10.07
2022-09-05T17:54:55.551Z,11.38
2022-09-05T17:57:49.241Z,9.07
2022-09-05T18:01:04.536Z,9.10
2022-09-05T18:04:17.892Z,7.72
2022-09-05T18:06:59.780Z,10.43
2022-09-05T18:10:11.908Z,10.52
2022-09-05T18:13:12.630Z,12.45
2022-09-05T18:16:13.141Z,9.13
2022-09-05T18:19:28.764Z,13.23
2022-09-05T18:21:51.062Z,10.82
2022-09-05T18:24:33.448Z,12.27
2022-09-05T18:27:43.890Z,10.13
2022-09-05T18:30:12.528Z,15.60
2022-09-05T18:32:45.248Z,16.10
2022-09-05T18:35:37.329Z,13.95
2022-09-05T18:38:51.617Z,15.25
2022-09-05T18:41:23.481Z,12.65
2022-09-05T18:44:13.667Z,16.10
2022-09-05T18:46:51.907Z,17.70
2022-09-05T18:50:22.104Z,11.45
2022-09-05T18:52:23.738Z,14.10
2022-09-05T18:56:09.811Z,14.35
2022-09-05T18:57:51.491Z,4.43
2022-09-05T19:00:35.214Z,4.50
2022-09-05T19:03:19.291Z,5.32
2022-09-05T19:05:54.684Z,4.72
2022-09-05T19:08:28.762Z,6.80
2022-09-05T19:11:26.903Z,7.38
2022-09-05T19:14:02.762Z,6.05
2022-09-05T19:16:47.948Z,5.72
2022-09-05T19:19:24.503Z,6.97
2022-09-05T19:22:05.504Z,8.63
2022-09-05T19:24:45.904Z,8.90
2022-09-05T19:28:13.958Z,10.02
2022-09-05T19:36:48.647Z,9.82
2022-09-05T19:37:05.767Z,15.93
2022-09-05T19:37:12.862Z,13.85
2022-09-05T19:39:23.174Z,16.33
2022-09-05T19:47:28.292Z,11.18
2022-09-05T19:47:42.612Z,9.00
2022-09-05T19:47:56.385Z,7.68
2022-09-05T19:50:20.345Z,6.88
2022-09-05T19:52:52.973Z,7.28
2022-09-05T19:55:24.324Z,7.82
2022-09-05T19:58:19.395Z,8.20
2022-09-05T20:00:50.374Z,7.78
2022-09-05T20:03:35.457Z,7.82
2022-09-05T20:06:30.191Z,9.07
2022-09-05T20:09:17.692Z,6.10
2022-09-05T20:11:50.883Z,9.52
2022-09-05T20:14:24.561Z,8.55
2022-09-05T20:16:57.014Z,8.40
2022-09-05T20:19:31.440Z,8.75
2022-09-05T20:22:24.237Z,8.05
2022-09-05T20:24:56.255Z,8.77
2022-09-05T20:27:28.101Z,7.82
2022-09-05T20:30:00.042Z,10.18
2022-09-05T20:32:39.947Z,8.05
2022-09-05T20:39:05.484Z,7.70
2022-09-05T20:43:17.606Z,8.15
2022-09-05T20:43:22.290Z,9.68
2022-09-05T20:44:17.365Z,9.27
2022-09-05T20:51:46.084Z,6.78
2022-09-05T20:54:08.294Z,5.28
2022-09-05T20:54:16.040Z,6.30
2022-09-05T20:55:39.038Z,9.23
2022-09-05T20:58:11.942Z,9.82
2022-09-05T21:01:11.709Z,8.93
2022-09-05T21:03:38.593Z,10.55
2022-09-05T21:06:22.644Z,8.80
2022-09-05T21:08:53.225Z,5.03
2022-09-05T21:11:33.692Z,3.85
2022-09-05T21:14:04.932Z,3.92
2022-09-05T21:16:37.104Z,3.97
2022-09-05T21:19:05.823Z,6.85
2022-09-05T21:21:36.105Z,5.93
2022-09-05T21:24:17.163Z,5.30
2022-09-05T21:26:49.554Z,6.90
2022-09-05T21:29:27.510Z,6.78
2022-09-05T21:32:05.587Z,9.15
2022-09-05T21:34:45.035Z,6.65
2022-09-05T21:37:16.129Z,7.85
2022-09-05T21:39:58.827Z,8.40
2022-09-05T21:45:08.511Z,5.63
2022-09-05T21:47:44.484Z,7.28
2022-09-05T21:48:10.546Z,5.60
2022-09-05T21:50:45.085Z,6.45
2022-09-05T21:58:14.610Z,4.82
2022-09-05T21:59:28.368Z,4.45
2022-09-05T21:59:29.611Z,5.60
2022-09-05T22:02:00.728Z,5.22
2022-09-05T22:04:29.385Z,4.53
2022-09-05T22:07:03.112Z,4.40
2022-09-05T22:09:31.795Z,4.95
2022-09-05T22:12:00.047Z,3.95
2022-09-05T22:14:35.755Z,4.18
2022-09-05T22:17:05.081Z,8.20
2022-09-05T22:19:37.774Z,4.18
2022-09-05T22:22:16.247Z,4.95
2022-09-05T22:24:50.305Z,5.45
2022-09-05T22:27:20.562Z,6.60
2022-09-05T22:29:51.947Z,5.95
2022-09-05T22:32:33.972Z,4.57
2022-09-05T22:35:27.041Z,4.60
2022-09-05T22:37:59.734Z,4.60
2022-09-05T22:40:30.212Z,3.83
2022-09-05T22:43:00.268Z,3.58
2022-09-05T22:45:32.013Z,3.75
2022-09-05T22:48:00.773Z,3.85
2022-09-05T22:50:29.073Z,3.70
2022-09-05T22:52:57.333Z,4.07
2022-09-05T22:55:25.736Z,3.78
2022-09-05T22:57:54.043Z,3.80
2022-09-05T23:00:22.510Z,4.75
2022-09-05T23:02:58.164Z,4.65
2022-09-05T23:05:26.927Z,3.80
2022-09-05T23:07:59.042Z,3.40
2022-09-05T23:10:28.499Z,3.78
2022-09-05T23:12:57.685Z,3.72
2022-09-05T23:15:26.900Z,5.13
2022-09-05T23:17:58.116Z,3.60
2022-09-05T23:20:29.829Z,3.30
2022-09-05T23:22:58.505Z,3.80
2022-09-05T23:25:26.847Z,3.40
2022-09-05T23:27:55.111Z,3.58
2022-09-05T23:30:23.403Z,3.60
2022-09-05T23:32:53.254Z,3.85
2022-09-05T23:35:22.893Z,3.67
2022-09-05T23:37:51.179Z,3.45
2022-09-05T23:40:22.978Z,3.83
2022-09-05T23:42:55.561Z,3.92
2022-09-05T23:45:25.259Z,4.70
2022-09-05T23:47:54.383Z,4.20
2022-09-05T23:50:24.139Z,4.07
2022-09-05T23:52:52.526Z,4.55
2022-09-05T23:55:23.225Z,4.25
2022-09-05T23:57:57.778Z,4.10
